createdAt,value
2019-03-27T00:00:43.037Z,94260.91
2019-03-27T00:03:15.804Z,94265.49
2019-03-27T00:05:48.665Z,94266.27
2019-03-27T00:08:21.592Z,94263.34
2019-03-27T00:10:54.568Z,94265.91
2019-03-27T00:13:27.605Z,94264.42
2019-03-27T00:16:00.525Z,94261.03
2019-03-27T00:18:34.346Z,94265.05
2019-03-27T00:21:08.084Z,94269.90
2019-03-27T00:23:41.025Z,94273.02
2019-03-27T00:26:13.981Z,94270.15
2019-03-27T00:28:46.891Z,94272.72
2019-03-27T00:31:19.755Z,94267.20
2019-03-27T00:33:52.712Z,94270.03
2019-03-27T00:36:25.754Z,94269.52
2019-03-27T00:38:58.662Z,94265.18
2019-03-27T00:41:31.471Z,94267.53
2019-03-27T00:44:05.532Z,94270.39
2019-03-27T00:46:38.490Z,94268.91
2019-03-27T00:49:11.390Z,94263.92
2019-03-27T00:51:44.404Z,94264.64
2019-03-27T00:54:17.160Z,94260.25
2019-03-27T00:56:50.365Z,94260.55
2019-03-27T00:59:23.132Z,94255.89
2019-03-27T01:01:56.060Z,94256.25
2019-03-27T01:04:28.890Z,94259.09
2019-03-27T01:07:01.861Z,94255.61
2019-03-27T01:09:34.721Z,94254.08
2019-03-27T01:12:07.415Z,94244.06
2019-03-27T01:14:40.262Z,94247.94
2019-03-27T01:17:13.065Z,94249.90
2019-03-27T01:19:46.004Z,94238.58
2019-03-27T01:22:18.841Z,94246.09
2019-03-27T01:24:51.852Z,94247.11
2019-03-27T01:27:24.823Z,94246.34
2019-03-27T01:29:57.824Z,94242.05
2019-03-27T01:32:30.812Z,94235.35
2019-03-27T01:35:04.967Z,94239.45
2019-03-27T01:37:38.065Z,94243.58
2019-03-27T01:40:10.902Z,94246.87
2019-03-27T01:42:43.782Z,94243.17
2019-03-27T01:45:16.681Z,94238.86
2019-03-27T01:47:49.592Z,94237.34
2019-03-27T01:50:22.461Z,94236.73
2019-03-27T01:52:55.462Z,94239.77
2019-03-27T01:55:28.212Z,94241.69
2019-03-27T01:58:01.200Z,94234.55
2019-03-27T02:00:34.050Z,94237.98
2019-03-27T02:03:06.909Z,94232.34
2019-03-27T02:05:39.740Z,94236.37
2019-03-27T02:08:12.610Z,94232.44
2019-03-27T02:10:45.581Z,94228.17
2019-03-27T02:13:18.491Z,94227.98
2019-03-27T02:15:51.300Z,94220.61
2019-03-27T02:18:24.171Z,94219.68
2019-03-27T02:20:57.170Z,94217.52
2019-03-27T02:23:30.141Z,94218.69
2019-03-27T02:26:04.229Z,94213.83
2019-03-27T02:28:37.151Z,94216.00
2019-03-27T02:31:10.038Z,94216.54
2019-03-27T02:33:42.940Z,94212.02
2019-03-27T02:36:15.793Z,94209.78
2019-03-27T02:38:48.712Z,94212.91
2019-03-27T02:41:21.550Z,94213.68
2019-03-27T02:43:54.493Z,94215.11
2019-03-27T02:46:27.332Z,94209.75
2019-03-27T02:49:00.221Z,94212.19
2019-03-27T02:51:33.170Z,94208.09
2019-03-27T02:54:06.407Z,94207.11
2019-03-27T02:56:39.287Z,94211.22
2019-03-27T02:59:12.166Z,94210.71
2019-03-27T03:01:48.046Z,94214.84
2019-03-27T03:04:19.568Z,94209.10
2019-03-27T03:06:52.514Z,94211.77
2019-03-27T03:09:25.501Z,94215.75
2019-03-27T03:11:58.449Z,94211.17
2019-03-27T03:14:31.392Z,94206.91
2019-03-27T03:17:05.445Z,94203.69
2019-03-27T03:19:38.505Z,94203.73
2019-03-27T03:22:11.400Z,94201.52
2019-03-27T03:24:44.314Z,94200.87
2019-03-27T03:27:17.100Z,94196.14
2019-03-27T03:29:50.302Z,94198.55
2019-03-27T03:32:23.217Z,94206.48
2019-03-27T03:34:56.132Z,94205.91
2019-03-27T03:37:29.042Z,94205.68
2019-03-27T03:40:02.053Z,94213.03
2019-03-27T03:42:36.023Z,94203.43
2019-03-27T03:45:09.285Z,94205.91
2019-03-27T03:47:42.183Z,94210.22
2019-03-27T03:50:15.202Z,94212.09
2019-03-27T03:52:48.081Z,94216.11
2019-03-27T03:55:20.941Z,94215.74
2019-03-27T03:57:53.901Z,94210.52
2019-03-27T04:00:26.814Z,94219.34
2019-03-27T04:02:59.693Z,94227.55
2019-03-27T04:05:32.672Z,94227.91
2019-03-27T04:08:05.847Z,94233.03
2019-03-27T04:10:38.851Z,94230.47
2019-03-27T04:13:11.754Z,94224.70
2019-03-27T04:15:45.411Z,94235.06
2019-03-27T04:18:18.344Z,94237.02
2019-03-27T04:20:51.373Z,94243.52
2019-03-27T04:23:24.359Z,94241.17
2019-03-27T04:26:12.615Z,94240.47
2019-03-27T04:28:31.832Z,94244.20
2019-03-27T04:31:05.804Z,94243.34
2019-03-27T04:33:38.812Z,94241.73
2019-03-27T04:36:11.753Z,94247.76
2019-03-27T04:38:44.832Z,94250.34
2019-03-27T04:41:17.623Z,94251.03
2019-03-27T04:43:50.471Z,94253.31
2019-03-27T04:46:23.512Z,94257.30
2019-03-27T04:48:56.501Z,94257.16
2019-03-27T04:51:29.491Z,94260.81
2019-03-27T04:54:03.072Z,94266.34
2019-03-27T04:56:36.553Z,94264.48
2019-03-27T04:59:09.421Z,94271.20
2019-03-27T05:01:42.372Z,94276.96
2019-03-27T05:04:15.573Z,94271.08
2019-03-27T05:06:48.534Z,94276.52
2019-03-27T05:09:21.450Z,94281.20
2019-03-27T05:11:54.512Z,94278.73
2019-03-27T05:14:27.371Z,94284.55
2019-03-27T05:17:00.221Z,94290.74
2019-03-27T05:19:33.221Z,94286.11
2019-03-27T05:22:06.320Z,94290.89
2019-03-27T05:24:39.121Z,94295.62
2019-03-27T05:27:12.062Z,94302.34
2019-03-27T05:29:44.921Z,94303.22
2019-03-27T05:32:17.941Z,94311.74
2019-03-27T05:34:50.922Z,94319.32
2019-03-27T05:37:23.832Z,94317.61
2019-03-27T05:39:56.795Z,94320.55
2019-03-27T05:42:29.676Z,94329.77
2019-03-27T05:45:03.342Z,94327.78
2019-03-27T05:47:36.670Z,94327.99
2019-03-27T05:50:09.821Z,94138.06
2019-03-27T05:52:42.926Z,94335.58
2019-03-27T05:55:15.731Z,94339.95
2019-03-27T05:57:48.671Z,94341.59
2019-03-27T06:00:21.582Z,94343.77
2019-03-27T06:02:54.682Z,94352.57
2019-03-27T06:05:27.450Z,94362.56
2019-03-27T06:08:00.430Z,94360.26
2019-03-27T06:10:33.222Z,94361.28
2019-03-27T06:13:06.287Z,94366.09
2019-03-27T06:15:39.211Z,94367.92
2019-03-27T06:18:13.256Z,94370.97
2019-03-27T06:20:47.753Z,94370.52
2019-03-27T06:23:20.811Z,94374.48
2019-03-27T06:25:53.663Z,94382.80
2019-03-27T06:28:26.711Z,94383.82
2019-03-27T06:30:59.647Z,94384.45
2019-03-27T06:33:32.714Z,94390.22
2019-03-27T06:36:05.523Z,94388.34
2019-03-27T06:38:38.506Z,94387.73
2019-03-27T06:41:11.282Z,94387.92
2019-03-27T06:43:44.191Z,94389.31
2019-03-27T06:46:17.111Z,94394.63
2019-03-27T06:48:50.351Z,94400.23
2019-03-27T06:51:25.108Z,94395.22
2019-03-27T06:53:57.941Z,94395.95
2019-03-27T06:56:30.693Z,94391.58
2019-03-27T06:59:05.011Z,94397.78
2019-03-27T07:01:37.880Z,94400.23
2019-03-27T07:04:11.119Z,94400.00
2019-03-27T07:06:44.481Z,94400.66
2019-03-27T07:09:17.301Z,94402.20
2019-03-27T07:11:50.203Z,94409.41
2019-03-27T07:14:23.060Z,94409.68
2019-03-27T07:16:56.114Z,94413.80
2019-03-27T07:19:29.045Z,94417.20
2019-03-27T07:22:02.062Z,94420.14
2019-03-27T07:24:35.042Z,94421.92
2019-03-27T07:27:07.841Z,94421.75
2019-03-27T07:29:40.812Z,94424.88
2019-03-27T07:32:13.691Z,94428.02
2019-03-27T07:34:46.832Z,94425.78
2019-03-27T07:37:21.043Z,94424.55
2019-03-27T07:39:53.981Z,94428.45
2019-03-27T07:42:28.893Z,94428.11
2019-03-27T07:45:01.672Z,94428.72
2019-03-27T07:47:34.542Z,94427.41
2019-03-27T07:50:07.224Z,94430.84
2019-03-27T07:52:40.032Z,94431.30
2019-03-27T07:55:19.418Z,94431.42
2019-03-27T07:57:47.511Z,94434.77
2019-03-27T08:00:20.491Z,94433.55
2019-03-27T08:02:53.461Z,94442.84
2019-03-27T08:05:26.291Z,94445.47
2019-03-27T08:07:59.261Z,94443.63
2019-03-27T08:10:32.102Z,94452.84
2019-03-27T08:13:05.933Z,94453.28
2019-03-27T08:15:40.799Z,94460.59
2019-03-27T08:18:13.401Z,94459.19
2019-03-27T08:20:46.481Z,94456.95
2019-03-27T08:23:19.382Z,94457.87
2019-03-27T08:25:52.440Z,94462.06
2019-03-27T08:28:25.371Z,94464.02
2019-03-27T08:30:58.286Z,94465.05
2019-03-27T08:33:31.101Z,94464.42
2019-03-27T08:36:05.279Z,94458.25
2019-03-27T08:38:38.101Z,94456.66
2019-03-27T08:41:10.961Z,94452.83
2019-03-27T08:43:43.872Z,94461.00
2019-03-27T08:46:16.721Z,94459.28
2019-03-27T08:48:49.831Z,94462.17
2019-03-27T08:51:22.692Z,94462.28
2019-03-27T08:53:55.651Z,94465.67
2019-03-27T08:56:28.503Z,94471.58
2019-03-27T08:59:01.620Z,94465.27
2019-03-27T09:01:34.623Z,94468.66
2019-03-27T09:04:07.469Z,94470.44
2019-03-27T09:06:40.631Z,94475.13
2019-03-27T09:09:13.521Z,94481.66
2019-03-27T09:11:46.460Z,94482.06
2019-03-27T09:14:19.331Z,94483.13
2019-03-27T09:16:52.351Z,94471.55
2019-03-27T09:19:35.752Z,94479.23
2019-03-27T09:22:00.081Z,94480.60
2019-03-27T09:24:32.903Z,94484.20
2019-03-27T09:27:05.947Z,94482.19
2019-03-27T09:29:38.960Z,94489.84
2019-03-27T09:32:11.911Z,94488.67
2019-03-27T09:34:44.881Z,94489.53
2019-03-27T09:37:17.861Z,94486.99
2019-03-27T09:39:50.801Z,94490.59
2019-03-27T09:42:23.671Z,94487.20
2019-03-27T09:44:56.611Z,94490.76
2019-03-27T09:47:29.652Z,94486.60
2019-03-27T09:50:03.145Z,94485.69
2019-03-27T09:52:36.211Z,94487.61
2019-03-27T09:55:09.271Z,94477.17
2019-03-27T09:57:42.272Z,94483.81
2019-03-27T10:00:15.242Z,94482.10
2019-03-27T10:02:48.195Z,94481.11
2019-03-27T10:05:21.191Z,94482.59
2019-03-27T10:07:54.193Z,94482.50
2019-03-27T10:10:27.052Z,94474.17
2019-03-27T10:12:59.880Z,94481.14
2019-03-27T10:15:32.841Z,94479.72
2019-03-27T10:18:05.838Z,94476.80
2019-03-27T10:20:38.641Z,94473.83
2019-03-27T10:23:11.461Z,94472.51
2019-03-27T10:25:44.392Z,94473.80
2019-03-27T10:28:17.221Z,94472.81
2019-03-27T10:30:50.219Z,94468.36
2019-03-27T10:33:23.192Z,94465.38
2019-03-27T10:35:56.121Z,94476.45
2019-03-27T10:38:28.991Z,94473.87
2019-03-27T10:41:01.902Z,94475.86
2019-03-27T10:43:34.742Z,94468.20
2019-03-27T10:46:08.270Z,94476.13
2019-03-27T10:48:51.982Z,94477.86
2019-03-27T10:51:16.071Z,94477.25
2019-03-27T10:53:48.961Z,94479.36
2019-03-27T10:56:22.991Z,94483.14
2019-03-27T10:58:56.141Z,94480.73
2019-03-27T11:01:29.061Z,94482.03
2019-03-27T11:04:02.112Z,94480.53
2019-03-27T11:06:35.873Z,94478.81
2019-03-27T11:09:08.633Z,94486.81
2019-03-27T11:11:41.463Z,94486.88
2019-03-27T11:14:14.433Z,94481.25
2019-03-27T11:16:47.411Z,94484.27
2019-03-27T11:19:20.421Z,94483.45
2019-03-27T11:21:53.342Z,94478.44
2019-03-27T11:24:26.221Z,94473.75
2019-03-27T11:26:59.244Z,94467.05
2019-03-27T11:29:32.173Z,94470.20
2019-03-27T11:32:05.469Z,94470.05
2019-03-27T11:34:38.534Z,94460.50
2019-03-27T11:37:11.451Z,94470.94
2019-03-27T11:39:44.541Z,94473.72
2019-03-27T11:42:17.303Z,94483.77
2019-03-27T11:44:50.333Z,94480.47
2019-03-27T11:47:23.211Z,94493.70
2019-03-27T11:49:56.146Z,94482.94
2019-03-27T11:52:29.899Z,94490.65
2019-03-27T11:55:03.806Z,94491.31
2019-03-27T11:57:36.553Z,94487.56
2019-03-27T12:00:09.382Z,94491.41
2019-03-27T12:02:42.262Z,94494.87
2019-03-27T12:05:15.201Z,94489.63
2019-03-27T12:07:48.191Z,94491.03
2019-03-27T12:10:21.081Z,94491.38
2019-03-27T12:12:53.922Z,94491.48
2019-03-27T12:15:26.941Z,94493.68
2019-03-27T12:17:59.901Z,94494.01
2019-03-27T12:20:32.922Z,94494.11
2019-03-27T12:23:05.898Z,94489.49
2019-03-27T12:25:39.021Z,94492.11
2019-03-27T12:28:11.802Z,94489.48
2019-03-27T12:30:44.763Z,94489.33
2019-03-27T12:33:17.591Z,94489.38
2019-03-27T12:35:50.645Z,94489.64
2019-03-27T12:38:23.551Z,94486.78
2019-03-27T12:40:56.552Z,94485.75
2019-03-27T12:43:29.362Z,94486.58
2019-03-27T12:46:02.491Z,94484.22
2019-03-27T12:48:35.332Z,94497.99
2019-03-27T12:51:13.105Z,94495.88
2019-03-27T12:53:43.030Z,94494.06
2019-03-27T12:56:15.972Z,94484.45
2019-03-27T12:58:48.863Z,94492.91
2019-03-27T13:01:21.772Z,94487.93
2019-03-27T13:03:54.751Z,94483.55
2019-03-27T13:06:27.708Z,94485.00
2019-03-27T13:09:00.843Z,94484.14
2019-03-27T13:11:36.603Z,94485.16
2019-03-27T13:14:08.252Z,94487.55
2019-03-27T13:16:42.042Z,94487.50
2019-03-27T13:19:15.431Z,94490.28
2019-03-27T13:21:48.415Z,94493.68
2019-03-27T13:24:21.221Z,94500.91
2019-03-27T13:26:54.381Z,94498.91
2019-03-27T13:29:27.772Z,94495.58
2019-03-27T13:32:00.642Z,94496.97
2019-03-27T13:34:33.592Z,94498.06
2019-03-27T13:37:06.682Z,94495.19
2019-03-27T13:39:39.771Z,94496.13
2019-03-27T13:42:12.642Z,94495.41
2019-03-27T13:44:45.613Z,94493.09
2019-03-27T13:47:18.567Z,94488.06
2019-03-27T13:49:51.533Z,94489.97
2019-03-27T13:52:24.380Z,94489.55
2019-03-27T13:54:57.320Z,94498.77
2019-03-27T13:57:30.291Z,94500.71
2019-03-27T14:00:04.200Z,94501.38
2019-03-27T14:02:37.083Z,94499.31
2019-03-27T14:05:10.431Z,94493.55
2019-03-27T14:07:43.340Z,94489.63
2019-03-27T14:10:16.223Z,94489.20
2019-03-27T14:12:49.112Z,94489.00
2019-03-27T14:15:22.394Z,94484.55
2019-03-27T14:17:55.341Z,94487.23
2019-03-27T14:20:28.201Z,94491.13
2019-03-27T14:23:01.272Z,94494.48
2019-03-27T14:25:34.193Z,94490.80
2019-03-27T14:28:09.683Z,94493.89
2019-03-27T14:30:42.551Z,94489.16
2019-03-27T14:33:15.432Z,94492.48
2019-03-27T14:35:48.411Z,94491.84
2019-03-27T14:38:21.342Z,94494.72
2019-03-27T14:40:54.362Z,94495.70
2019-03-27T14:43:27.400Z,94496.66
2019-03-27T14:46:00.753Z,94492.02
2019-03-27T14:48:33.741Z,94495.83
2019-03-27T14:51:06.550Z,94494.95
2019-03-27T14:53:39.965Z,94489.05
2019-03-27T14:56:12.781Z,94488.41
2019-03-27T14:58:46.332Z,94489.94
2019-03-27T15:01:19.230Z,94494.23
2019-03-27T15:03:52.281Z,94487.12
2019-03-27T15:06:25.202Z,94494.16
2019-03-27T15:08:58.911Z,94493.05
2019-03-27T15:11:43.531Z,94492.59
2019-03-27T15:14:16.517Z,94497.77
2019-03-27T15:16:49.522Z,94493.13
2019-03-27T15:19:22.444Z,94486.89
2019-03-27T15:21:55.530Z,94492.80
2019-03-27T15:24:28.541Z,94500.86
2019-03-27T15:27:01.434Z,94495.47
2019-03-27T15:29:34.685Z,94499.63
2019-03-27T15:32:07.395Z,94501.34
2019-03-27T15:34:40.343Z,94499.48
2019-03-27T15:37:13.291Z,94503.55
2019-03-27T15:39:46.183Z,94505.08
2019-03-27T15:42:19.062Z,94499.58
2019-03-27T15:44:52.679Z,94509.98
2019-03-27T15:47:25.701Z,94513.92
2019-03-27T15:49:58.741Z,94513.22
2019-03-27T15:52:36.739Z,94508.27
2019-03-27T15:55:06.487Z,94508.82
2019-03-27T15:57:39.357Z,94507.75
2019-03-27T16:00:12.670Z,94525.34
2019-03-27T16:02:45.691Z,94516.92
2019-03-27T16:05:18.661Z,94522.14
2019-03-27T16:07:51.621Z,94520.25
2019-03-27T16:10:24.742Z,94519.33
2019-03-27T16:12:57.664Z,94524.16
2019-03-27T16:15:30.898Z,94527.92
2019-03-27T16:18:04.731Z,94525.39
2019-03-27T16:20:37.836Z,94524.90
2019-03-27T16:23:10.851Z,94531.69
2019-03-27T16:25:43.831Z,94529.13
2019-03-27T16:28:16.691Z,94529.86
2019-03-27T16:30:49.571Z,94527.13
2019-03-27T16:33:22.471Z,94540.13
2019-03-27T16:35:55.986Z,94544.26
2019-03-27T16:38:28.945Z,94542.45
2019-03-27T16:41:01.991Z,94543.33
2019-03-27T16:43:35.632Z,94539.62
2019-03-27T16:46:09.011Z,94541.28
2019-03-27T16:48:42.721Z,94548.28
2019-03-27T16:51:15.712Z,94555.63
2019-03-27T16:53:48.680Z,94560.16
2019-03-27T16:56:21.650Z,94554.45
2019-03-27T16:58:54.616Z,94565.82
2019-03-27T17:01:28.042Z,94568.45
2019-03-27T17:04:01.106Z,94563.71
2019-03-27T17:06:34.090Z,94568.33
2019-03-27T17:09:06.810Z,94572.39
2019-03-27T17:11:39.791Z,94573.80
2019-03-27T17:14:12.712Z,94574.89
2019-03-27T17:16:45.590Z,94573.17
2019-03-27T17:19:18.699Z,94572.33
2019-03-27T17:21:51.692Z,94580.36
2019-03-27T17:24:24.491Z,94586.02
2019-03-27T17:26:57.849Z,94576.69
2019-03-27T17:29:30.631Z,94577.17
2019-03-27T17:32:04.234Z,94580.81
2019-03-27T17:34:37.043Z,94588.17
2019-03-27T17:37:09.904Z,94593.26
2019-03-27T17:39:42.821Z,94587.95
2019-03-27T17:42:15.682Z,94588.28
2019-03-27T17:44:51.779Z,94603.97
2019-03-27T17:47:23.112Z,94609.74
2019-03-27T17:49:55.991Z,94607.27
2019-03-27T17:52:29.051Z,94603.32
2019-03-27T17:55:01.802Z,94606.50
2019-03-27T17:57:34.832Z,94611.12
2019-03-27T18:00:07.623Z,94610.02
2019-03-27T18:02:40.522Z,94612.76
2019-03-27T18:05:13.951Z,94613.50
2019-03-27T18:07:47.031Z,94610.98
2019-03-27T18:10:19.861Z,94612.02
2019-03-27T18:12:53.151Z,94610.31
2019-03-27T18:15:25.944Z,94616.38
2019-03-27T18:17:58.911Z,94620.53
2019-03-27T18:20:31.863Z,94615.81
2019-03-27T18:23:05.629Z,94621.66
2019-03-27T18:25:38.440Z,94627.84
2019-03-27T18:28:11.261Z,94631.62
2019-03-27T18:30:44.186Z,94632.20
2019-03-27T18:33:17.994Z,94647.30
2019-03-27T18:35:50.964Z,94643.64
2019-03-27T18:38:23.892Z,94649.80
2019-03-27T18:40:57.190Z,94653.02
2019-03-27T18:43:30.732Z,94657.76
2019-03-27T18:46:04.656Z,94661.38
2019-03-27T18:48:37.752Z,94655.56
2019-03-27T18:51:10.881Z,94659.49
2019-03-27T18:53:43.910Z,94658.44
2019-03-27T18:56:16.811Z,94669.80
2019-03-27T18:58:50.030Z,94666.33
2019-03-27T19:01:22.882Z,94673.03
2019-03-27T19:03:55.891Z,94671.00
2019-03-27T19:06:28.685Z,94672.67
2019-03-27T19:09:01.772Z,94669.66
2019-03-27T19:11:34.820Z,94672.70
2019-03-27T19:14:07.647Z,94673.31
2019-03-27T19:16:40.771Z,94672.39
2019-03-27T19:19:13.575Z,94672.48
2019-03-27T19:21:47.138Z,94672.94
2019-03-27T19:24:19.986Z,94677.58
2019-03-27T19:26:53.111Z,94677.44
2019-03-27T19:29:25.982Z,94685.44
2019-03-27T19:31:59.121Z,94693.90
2019-03-27T19:34:31.977Z,94690.89
2019-03-27T19:37:06.050Z,94688.48
2019-03-27T19:39:39.220Z,94694.77
2019-03-27T19:42:12.043Z,94690.73
2019-03-27T19:44:44.991Z,94696.14
2019-03-27T19:47:17.830Z,94696.28
2019-03-27T19:49:50.882Z,94698.45
2019-03-27T19:52:23.663Z,94697.37
2019-03-27T19:54:56.959Z,94700.57
2019-03-27T19:57:29.912Z,94704.30
2019-03-27T20:00:03.329Z,94707.64
2019-03-27T20:02:36.441Z,94712.21
2019-03-27T20:05:09.243Z,94711.98
2019-03-27T20:07:42.119Z,94711.20
2019-03-27T20:10:14.965Z,94717.45
2019-03-27T20:12:48.020Z,94721.57
2019-03-27T20:15:20.914Z,94714.22
2019-03-27T20:17:54.330Z,94714.50
2019-03-27T20:20:27.491Z,94716.85
2019-03-27T20:23:13.989Z,94720.55
2019-03-27T20:25:35.280Z,94715.31
2019-03-27T20:28:08.049Z,94713.08
2019-03-27T20:30:40.878Z,94717.39
2019-03-27T20:33:13.864Z,94722.13
2019-03-27T20:35:46.941Z,94721.74
2019-03-27T20:38:19.828Z,94721.63
2019-03-27T20:40:53.031Z,94728.66
2019-03-27T20:43:25.757Z,94723.55
2019-03-27T20:45:58.932Z,94725.88
2019-03-27T20:48:32.072Z,94725.28
2019-03-27T20:51:05.329Z,94732.59
2019-03-27T20:53:38.250Z,94727.30
2019-03-27T20:56:11.172Z,94729.98
2019-03-27T20:58:44.281Z,94726.55
2019-03-27T21:01:17.133Z,94734.70
2019-03-27T21:03:50.100Z,94728.52
2019-03-27T21:06:23.182Z,94731.83
2019-03-27T21:08:59.290Z,94730.91
2019-03-27T21:11:32.371Z,94737.94
2019-03-27T21:14:06.106Z,94738.06
2019-03-27T21:16:39.241Z,94739.12
2019-03-27T21:19:12.240Z,94740.75
2019-03-27T21:21:45.341Z,94736.34
2019-03-27T21:24:18.371Z,94736.67
2019-03-27T21:26:51.334Z,94734.70
2019-03-27T21:29:24.121Z,94736.34
2019-03-27T21:31:57.163Z,94741.57
2019-03-27T21:34:30.041Z,94739.41
2019-03-27T21:37:03.681Z,94739.60
2019-03-27T21:39:37.290Z,94738.72
2019-03-27T21:42:10.313Z,94744.72
2019-03-27T21:44:43.421Z,94744.27
2019-03-27T21:47:16.951Z,94748.38
2019-03-27T21:49:50.111Z,94747.64
2019-03-27T21:52:23.121Z,94746.69
2019-03-27T21:54:55.981Z,94752.66
2019-03-27T21:57:28.780Z,94753.53
2019-03-27T22:00:01.909Z,94774.47
2019-03-27T22:02:35.103Z,94762.70
2019-03-27T22:05:07.835Z,94760.13
2019-03-27T22:07:40.801Z,94761.00
2019-03-27T22:10:13.585Z,94761.92
2019-03-27T22:12:47.225Z,94770.22
2019-03-27T22:15:20.151Z,94771.11
2019-03-27T22:17:53.141Z,94775.66
2019-03-27T22:20:26.090Z,94776.16
2019-03-27T22:22:58.990Z,94774.03
2019-03-27T22:25:36.182Z,94772.41
2019-03-27T22:28:06.173Z,94776.35
2019-03-27T22:30:39.405Z,94778.39
2019-03-27T22:33:12.253Z,94776.60
2019-03-27T22:35:45.801Z,94775.90
2019-03-27T22:38:19.080Z,94775.61
2019-03-27T22:40:52.363Z,94773.90
2019-03-27T22:43:25.461Z,94781.13
2019-03-27T22:45:58.208Z,94778.08
2019-03-27T22:48:31.151Z,94774.72
2019-03-27T22:51:05.098Z,94779.59
2019-03-27T22:53:38.041Z,94771.06
2019-03-27T22:56:10.972Z,94776.77
2019-03-27T22:58:43.860Z,94779.59
2019-03-27T23:01:16.630Z,94777.78
2019-03-27T23:03:49.463Z,94777.83
2019-03-27T23:06:22.301Z,94776.59
2019-03-27T23:08:55.182Z,94788.80
2019-03-27T23:11:28.062Z,94791.98
2019-03-27T23:14:00.893Z,94790.59
2019-03-27T23:16:33.841Z,94782.55
2019-03-27T23:19:06.795Z,94791.12
2019-03-27T23:21:39.594Z,94788.52
2019-03-27T23:24:12.711Z,94779.67
2019-03-27T23:26:45.531Z,94776.33
2019-03-27T23:29:18.412Z,94781.90
2019-03-27T23:31:51.401Z,94778.25
2019-03-27T23:34:24.361Z,94778.48
2019-03-27T23:36:57.440Z,94787.73
2019-03-27T23:39:30.340Z,94789.83
2019-03-27T23:42:03.731Z,94785.39
2019-03-27T23:44:36.760Z,94784.91
2019-03-27T23:47:09.711Z,94784.92
2019-03-27T23:49:42.651Z,94786.95
2019-03-27T23:52:15.430Z,94782.86
2019-03-27T23:54:48.472Z,94785.72
2019-03-27T23:57:21.771Z,94786.98
2019-03-27T23:59:55.000Z,94781.52
